Time;durP1;ratioP1;P1;durP2;ratioP2;P2;SDS_P1;SDS_P2;PMS_P1;PMS_P2;Temp;Humidity;BMP_temperature;BMP_pressure;BME280_temperature;BME280_humidity;BME280_pressure;Samples;Min_cycle;Max_cycle;Signal;HPM_P1;HPM_P2
2023/01/17 00:00:10;;;;;;;;;;;4.10;99.90;4.70;97186.00;;;;340635;28;83254;-81
2023/01/17 00:00:22;;;;;;;;;;;4.10;99.90;4.70;97189.00;;;;340085;28;90760;-81
2023/01/17 00:00:33;;;;;;;;;;;4.10;99.90;4.70;97177.00;;;;341856;28;83623;-81
2023/01/17 00:00:46;;;;;;;;;;;4.10;99.90;4.70;97183.00;;;;341497;28;90300;-81
2023/01/17 00:01:06;;;;;;;;;;;4.10;99.90;4.70;97186.00;;;;341883;28;82489;-81
2023/01/17 00:01:18;;;;;;;;;;;4.10;99.90;4.70;97186.00;;;;341502;28;89337;-81
2023/01/17 00:01:32;;;;;;;;;;;4.10;99.90;4.60;97182.00;;;;341978;28;82506;-81
2023/01/17 00:01:44;;;;;;;;;;;4.10;99.90;4.60;97189.00;;;;341526;28;89368;-81
2023/01/17 00:01:56;;;;;;;;;;;4.10;99.90;4.50;97177.00;;;;339328;28;83329;-81
2023/01/17 00:02:08;;;;;;;;;;;4.10;99.90;4.50;97183.00;;;;340255;28;88599;-81
2023/01/17 00:02:19;;;;;;;;;;;4.10;99.90;4.50;97178.00;;;;343426;28;83174;-81
2023/01/17 00:02:31;;;;;;;;;;;4.10;99.90;4.50;97181.00;;;;341567;28;90245;-81
2023/01/17 00:02:43;;;;;;;;;;;4.10;99.90;4.50;97186.00;;;;340690;28;83402;-81
2023/01/17 00:02:56;;;;;;;;;;;4.10;99.90;4.60;97184.00;;;;338827;28;90305;-81
2023/01/17 00:03:08;;;;;;;;;;;4.10;99.90;4.60;97187.00;;;;340623;28;83318;-81
2023/01/17 00:03:19;;;;;;;;;;;4.00;99.90;4.50;97189.00;;;;339871;28;89056;-81
2023/01/17 00:03:32;;;;;;;;;;;4.00;99.90;4.50;97188.00;;;;343423;28;83341;-81
2023/01/17 00:09:57;;;;;;;;;;;4.00;99.90;4.50;97157.00;;;;338531;28;91204;-81
2023/01/17 00:10:14;;;;;;;;;;;4.00;99.90;4.60;97164.00;;;;339321;28;83351;-81
2023/01/17 00:10:26;;;;;;;;;;;4.00;99.90;4.60;97159.00;;;;340061;28;90095;-81
2023/01/17 00:10:39;;;;;;;;;;;4.00;99.90;4.60;97161.00;;;;342836;28;83393;-82
2023/01/17 00:10:51;;;;;;;;;;;4.00;99.90;4.70;97168.00;;;;341412;28;90066;-81
2023/01/17 00:11:03;;;;;;;;;;;4.00;99.90;4.70;97170.00;;;;340466;28;83428;-81
2023/01/17 00:11:15;;;;;;;;;;;4.00;99.90;4.70;97157.00;;;;341415;28;89217;-81
2023/01/17 00:11:27;;;;;;;;;;;4.00;99.90;4.60;97155.00;;;;343406;28;83349;-81
2023/01/17 00:11:39;;;;;;;;;;;4.00;99.90;4.60;97164.00;;;;342763;28;89521;-81
2023/01/17 00:11:50;;;;;;;;;;;4.00;99.90;4.60;97155.00;;;;341945;28;83386;-81
2023/01/17 00:12:04;;;;;;;;;;;4.00;99.90;4.60;97153.00;;;;340161;28;87300;-80
2023/01/17 00:12:16;;;;;;;;;;;4.00;99.90;4.60;97157.00;;;;340634;28;83332;-81
2023/01/17 00:12:29;;;;;;;;;;;4.00;99.90;4.60;97159.00;;;;340149;28;88992;-81
2023/01/17 00:12:48;;;;;;;;;;;4.00;99.90;4.60;97156.00;;;;339255;28;83452;-81
2023/01/17 00:13:01;;;;;;;;;;;4.00;99.90;4.60;97156.00;;;;340028;28;90198;-81
2023/01/17 00:13:13;;;;;;;;;;;4.00;99.90;4.60;97153.00;;;;339150;28;83475;-81
2023/01/17 00:13:24;;;;;;;;;;;4.00;99.90;4.50;97159.00;;;;338405;28;92227;-81
2023/01/17 00:13:36;;;;;;;;;;;4.00;99.90;4.50;97154.00;;;;339179;28;83393;-81
2023/01/17 00:13:48;;;;;;;;;;;4.00;99.90;4.50;97148.00;;;;341402;28;91159;-81
2023/01/17 00:14:00;;;;;;;;;;;4.00;99.90;4.50;97164.00;;;;341836;28;82569;-81
2023/01/17 00:14:12;;;;;;;;;;;4.00;99.90;4.50;97162.00;;;;341441;28;91068;-81
2023/01/17 00:14:23;;;;;;;;;;;4.00;99.90;4.50;97161.00;;;;339250;28;83163;-81
2023/01/17 00:14:35;;;;;;;;;;;4.00;99.90;4.50;97153.00;;;;340015;28;92653;-81
2023/01/17 00:14:47;;;;;;;;;;;4.00;99.90;4.50;97155.00;;;;340618;28;82604;-81
2023/01/17 00:14:59;;;;;;;;;;;4.00;99.90;4.50;97149.00;;;;340026;28;88692;-81
2023/01/17 00:15:11;;;;;;;;;;;4.00;99.90;4.50;97155.00;;;;340602;28;83246;-81
2023/01/17 00:15:23;;;;;;;;;;;4.00;99.90;4.50;97151.00;;;;341402;28;89373;-81
2023/01/17 00:15:38;;;;;;;;;;;4.00;99.90;4.50;97161.00;;;;343356;28;83314;-81
2023/01/17 00:15:50;;;;;;;;;;;4.00;99.90;4.50;97145.00;;;;341317;28;88511;-81
2023/01/17 00:16:02;;;;;;;;;;;4.00;99.90;4.50;97151.00;;;;340370;28;83506;-81
2023/01/17 00:16:14;;;;;;;;;;;4.00;99.90;4.60;97155.00;;;;341512;28;89641;-81
2023/01/17 00:16:26;;;;;;;;;;;4.00;99.90;4.60;97141.00;;;;340595;28;83394;-82
2023/01/17 00:16:37;;;;;;;;;;;4.00;99.90;4.60;97144.00;;;;341435;28;88736;-81
2023/01/17 00:16:49;;;;;;;;;;;4.00;99.90;4.70;97148.00;;;;342007;28;82403;-81
2023/01/17 00:17:01;;;;;;;;;;;4.00;99.90;4.70;97148.00;;;;341284;28;92432;-81
2023/01/17 00:17:13;;;;;;;;;;;4.00;99.90;4.70;97148.00;;;;341869;28;82611;-81
2023/01/17 00:17:25;;;;;;;;;;;4.00;99.90;4.80;97146.00;;;;340120;28;89408;-81
2023/01/17 00:17:37;;;;;;;;;;;4.00;99.90;4.70;97146.00;;;;340656;28;83062;-81
2023/01/17 00:17:49;;;;;;;;;;;4.00;99.90;4.70;97150.00;;;;341505;28;89099;-81
2023/01/17 00:18:01;;;;;;;;;;;4.00;99.90;4.60;97151.00;;;;340411;28;83425;-81
2023/01/17 00:18:12;;;;;;;;;;;4.00;99.90;4.60;97141.00;;;;341583;28;89115;-81
2023/01/17 00:18:24;;;;;;;;;;;4.00;99.90;4.60;97147.00;;;;341847;28;83542;-81
2023/01/17 00:18:36;;;;;;;;;;;4.00;99.90;4.60;97142.00;;;;340036;28;92448;-81
2023/01/17 00:26:01;;;;;;;;;;;4.00;99.90;4.70;97141.00;;;;340616;28;83317;-81
2023/01/17 00:26:01;;;;;;;;;;;4.00;99.90;4.80;97142.00;;;;338598;28;92375;-81
2023/01/17 00:26:02;;;;;;;;;;;4.00;99.90;4.50;97131.00;;;;341472;28;87167;-81
2023/01/17 00:26:17;;;;;;;;;;;4.00;99.90;4.50;97120.00;;;;341928;28;83402;-81
2023/01/17 00:26:29;;;;;;;;;;;4.00;99.90;4.50;97134.00;;;;340094;28;88720;-81
2023/01/17 01:33:41;;;;;;;;;;;3.70;99.90;4.30;97001.00;;;;342872;28;88738;-81
2023/01/17 01:33:53;;;;;;;;;;;3.70;99.90;4.40;97003.00;;;;341855;28;83343;-81
2023/01/17 01:34:04;;;;;;;;;;;3.70;99.90;4.40;96984.00;;;;340136;28;88688;-81
2023/01/17 01:34:16;;;;;;;;;;;3.70;99.90;4.40;97000.00;;;;341878;28;82386;-81
2023/01/17 01:34:28;;;;;;;;;;;3.70;99.90;4.40;96993.00;;;;341212;28;90998;-81
2023/01/17 01:34:40;;;;;;;;;;;3.70;99.90;4.40;96999.00;;;;338959;28;82695;-81
2023/01/17 01:34:51;;;;;;;;;;;3.70;99.90;4.30;96989.00;;;;341346;28;93416;-81
2023/01/17 01:35:03;;;;;;;;;;;3.70;99.90;4.30;96996.00;;;;341724;28;83377;-81
2023/01/17 01:35:15;;;;;;;;;;;3.70;99.90;4.20;96991.00;;;;340165;28;88741;-81
2023/01/17 01:35:27;;;;;;;;;;;3.70;99.90;4.30;96996.00;;;;341896;28;82484;-81
2023/01/17 01:35:40;;;;;;;;;;;3.70;99.90;4.20;97002.00;;;;344186;28;88005;-81
2023/01/17 01:35:53;;;;;;;;;;;3.70;99.90;4.20;96996.00;;;;343154;28;83474;-81
2023/01/17 01:36:06;;;;;;;;;;;3.70;99.90;4.20;96997.00;;;;342670;28;91466;-81
2023/01/17 01:36:18;;;;;;;;;;;3.70;99.90;4.20;96989.00;;;;340610;28;82491;-81
2023/01/17 01:36:30;;;;;;;;;;;3.70;99.90;4.30;96990.00;;;;342754;28;89304;-81
2023/01/17 01:36:41;;;;;;;;;;;3.70;99.90;4.30;96987.00;;;;343243;28;83143;-81
2023/01/17 01:36:53;;;;;;;;;;;3.70;99.90;4.30;96999.00;;;;342813;28;90038;-81
2023/01/17 01:37:05;;;;;;;;;;;3.70;99.90;4.30;96983.00;;;;343220;28;83371;-81
2023/01/17 01:37:16;;;;;;;;;;;3.70;99.90;4.30;96992.00;;;;341091;28;87740;-81
2023/01/17 01:37:29;;;;;;;;;;;3.70;99.90;4.30;96997.00;;;;343161;28;82312;-81
2023/01/17 01:37:40;;;;;;;;;;;3.70;99.90;4.30;96989.00;;;;340186;28;89117;-81
2023/01/17 01:37:52;;;;;;;;;;;3.70;99.90;4.30;96998.00;;;;343190;28;82331;-81
2023/01/17 01:38:04;;;;;;;;;;;3.70;99.90;4.30;96990.00;;;;342761;28;89747;-81
2023/01/17 01:38:17;;;;;;;;;;;3.70;99.90;4.40;96991.00;;;;341971;28;83353;-81
2023/01/17 01:38:28;;;;;;;;;;;3.70;99.90;4.30;97003.00;;;;340139;28;88551;-81
2023/01/17 01:38:40;;;;;;;;;;;3.70;99.90;4.30;96996.00;;;;343190;28;83463;-81
2023/01/17 01:38:53;;;;;;;;;;;3.70;99.90;4.30;96996.00;;;;341389;28;90141;-81
2023/01/17 01:39:05;;;;;;;;;;;3.70;99.90;4.40;96988.00;;;;341923;28;83354;-81
2023/01/17 01:39:16;;;;;;;;;;;3.70;99.90;4.40;96989.00;;;;342664;28;90945;-81
2023/01/17 01:39:28;;;;;;;;;;;3.70;99.90;4.50;97001.00;;;;343293;28;82503;-81
2023/01/17 01:39:40;;;;;;;;;;;3.70;99.90;4.50;96991.00;;;;342760;28;89177;-81
2023/01/17 01:39:51;;;;;;;;;;;3.70;99.90;4.50;96993.00;;;;344504;28;83446;-81
2023/01/17 01:40:04;;;;;;;;;;;3.70;99.90;4.40;96992.00;;;;341394;28;89204;-81
2023/01/17 01:40:16;;;;;;;;;;;3.70;99.90;4.40;96988.00;;;;341654;28;83265;-81
2023/01/17 01:40:27;;;;;;;;;;;3.70;99.90;4.40;96989.00;;;;341423;28;89058;-82
2023/01/17 01:40:47;;;;;;;;;;;3.70;99.90;4.40;96999.00;;;;339120;28;83506;-81
2023/01/17 01:40:59;;;;;;;;;;;3.80;99.90;4.30;96999.00;;;;340053;28;90614;-81
2023/01/17 01:41:10;;;;;;;;;;;3.80;99.90;4.30;96998.00;;;;341889;28;82462;-81
2023/01/17 01:41:22;;;;;;;;;;;3.70;99.90;4.30;96992.00;;;;341410;28;89570;-82
2023/01/17 01:41:34;;;;;;;;;;;3.70;99.90;4.30;96991.00;;;;343421;28;82423;-82
2023/01/17 01:41:46;;;;;;;;;;;3.70;99.90;4.30;97002.00;;;;342801;28;89069;-81
2023/01/17 01:41:57;;;;;;;;;;;3.70;99.90;4.20;96988.00;;;;341859;28;83142;-81
2023/01/17 01:42:13;;;;;;;;;;;3.70;99.90;4.30;96989.00;;;;344142;28;89447;-81
2023/01/17 01:42:25;;;;;;;;;;;3.70;99.90;4.30;96992.00;;;;344490;28;83165;-81
2023/01/17 01:42:36;;;;;;;;;;;3.70;99.90;4.20;96999.00;;;;341249;28;92328;-81
2023/01/17 01:42:52;;;;;;;;;;;3.70;99.90;4.20;96999.00;;;;341763;28;83326;-81
2023/01/17 01:43:04;;;;;;;;;;;3.70;99.90;4.30;96987.00;;;;342652;28;90078;-81
2023/01/17 01:43:19;;;;;;;;;;;3.70;99.90;4.30;96987.00;;;;344462;28;83325;-81
2023/01/17 01:43:46;;;;;;;;;;;3.70;99.90;4.30;96991.00;;;;344180;28;88843;-81
2023/01/17 01:43:58;;;;;;;;;;;3.70;99.90;4.30;96998.00;;;;343213;28;83504;-81
2023/01/17 01:44:42;;;;;;;;;;;3.70;99.90;4.40;97001.00;;;;342808;28;89085;-81
2023/01/17 01:44:54;;;;;;;;;;;3.70;99.90;4.30;96990.00;;;;341934;28;83326;-81
2023/01/17 01:45:16;;;;;;;;;;;3.70;99.90;4.50;96999.00;;;;344038;28;90416;-81
2023/01/17 01:45:29;;;;;;;;;;;3.70;99.90;4.50;96990.00;;;;345886;28;83453;-81
2023/01/17 01:45:44;;;;;;;;;;;3.70;99.90;4.50;96993.00;;;;344200;28;88885;-81
2023/01/17 01:45:56;;;;;;;;;;;3.70;99.90;4.50;96991.00;;;;339065;28;83646;-81
2023/01/17 01:46:10;;;;;;;;;;;3.70;99.90;4.40;96997.00;;;;342794;28;89630;-81
2023/01/17 01:46:39;;;;;;;;;;;3.70;99.90;4.40;96997.00;;;;344677;28;83356;-81
2023/01/17 01:46:51;;;;;;;;;;;3.70;99.90;4.40;96991.00;;;;342699;28;88829;-81
2023/01/17 01:47:03;;;;;;;;;;;3.70;99.90;4.40;96987.00;;;;345971;28;82395;-82
2023/01/17 01:47:18;;;;;;;;;;;3.70;99.90;4.40;96987.00;;;;342749;28;88296;-81
2023/01/17 01:47:32;;;;;;;;;;;3.70;99.90;4.40;96985.00;;;;344592;28;83124;-81
2023/01/17 01:47:44;;;;;;;;;;;3.70;99.90;4.40;96975.00;;;;341442;28;89834;-81
2023/01/17 01:48:00;;;;;;;;;;;3.70;99.90;4.40;96987.00;;;;341852;28;83410;-81
2023/01/17 01:48:18;;;;;;;;;;;3.70;99.90;4.40;96977.00;;;;344128;28;91440;-81
2023/01/17 01:48:32;;;;;;;;;;;3.70;99.90;4.30;96978.00;;;;343266;28;83389;-81
2023/01/17 01:48:50;;;;;;;;;;;3.70;99.90;4.40;96974.00;;;;341359;28;90170;-81
2023/01/17 01:49:14;;;;;;;;;;;3.70;99.90;4.30;96972.00;;;;340133;28;82579;-81
2023/01/17 01:49:28;;;;;;;;;;;3.70;99.90;4.30;96971.00;;;;342760;28;92023;-81
2023/01/17 01:49:40;;;;;;;;;;;3.70;99.90;4.20;96976.00;;;;343224;28;83437;-81
2023/01/17 01:49:51;;;;;;;;;;;3.70;99.90;4.30;96972.00;;;;341525;28;89135;-81
2023/01/17 01:50:05;;;;;;;;;;;3.70;99.90;4.40;96971.00;;;;341881;28;83330;-81
2023/01/17 01:50:17;;;;;;;;;;;3.70;99.90;4.40;96966.00;;;;342832;28;91657;-81
2023/01/17 01:50:29;;;;;;;;;;;3.70;99.90;4.40;96972.00;;;;342929;28;83430;-81
2023/01/17 01:50:42;;;;;;;;;;;3.70;99.90;4.40;96972.00;;;;341479;28;89188;-81
2023/01/17 01:50:54;;;;;;;;;;;3.70;99.90;4.30;96972.00;;;;343174;28;83425;-81
2023/01/17 01:51:08;;;;;;;;;;;3.70;99.90;4.20;96981.00;;;;341442;28;88889;-81
2023/01/17 01:51:27;;;;;;;;;;;3.70;99.90;4.40;96970.00;;;;344507;28;83334;-81
2023/01/17 01:51:43;;;;;;;;;;;3.70;99.90;4.30;96972.00;;;;340139;28;89214;-82
2023/01/17 01:51:57;;;;;;;;;;;3.70;99.90;4.30;96984.00;;;;339234;28;82316;-81
2023/01/17 01:52:09;;;;;;;;;;;3.70;99.90;4.30;96975.00;;;;342785;28;89786;-81
2023/01/17 01:52:22;;;;;;;;;;;3.70;99.90;4.30;96979.00;;;;344602;28;83962;-81
2023/01/17 01:52:34;;;;;;;;;;;3.70;99.90;4.30;96983.00;;;;341398;28;89703;-81
2023/01/17 01:52:47;;;;;;;;;;;3.70;99.90;4.30;96974.00;;;;344736;28;83471;-81
2023/01/17 01:52:59;;;;;;;;;;;3.70;99.90;4.30;96985.00;;;;345197;28;89327;-81
2023/01/17 01:53:11;;;;;;;;;;;3.70;99.90;4.30;96967.00;;;;343287;28;83409;-81
2023/01/17 01:53:23;;;;;;;;;;;3.70;99.90;4.30;96983.00;;;;341339;28;90220;-81
2023/01/17 01:53:36;;;;;;;;;;;3.70;99.90;4.30;96976.00;;;;341980;28;82333;-81
2023/01/17 01:53:50;;;;;;;;;;;3.70;99.90;4.30;96979.00;;;;340040;28;91138;-81
2023/01/17 01:54:10;;;;;;;;;;;3.70;99.90;4.20;96971.00;;;;339241;28;83325;-81
2023/01/17 01:54:28;;;;;;;;;;;3.70;99.90;4.20;96971.00;;;;344231;28;88754;-81
2023/01/17 01:54:46;;;;;;;;;;;3.70;99.90;4.20;96974.00;;;;344496;28;83436;-81
2023/01/17 01:55:06;;;;;;;;;;;3.70;99.90;4.30;96976.00;;;;340156;28;89383;-81
2023/01/17 01:55:21;;;;;;;;;;;3.70;99.90;4.30;96968.00;;;;343173;28;82511;-81
2023/01/17 01:55:38;;;;;;;;;;;3.70;99.90;4.40;96964.00;;;;342793;28;88021;-81
2023/01/17 01:55:49;;;;;;;;;;;3.70;99.90;4.40;96972.00;;;;340547;28;83322;-81
2023/01/17 01:56:02;;;;;;;;;;;3.70;99.90;4.40;96961.00;;;;339737;28;91232;-81
2023/01/17 01:56:14;;;;;;;;;;;3.70;99.90;4.40;96962.00;;;;345906;28;83266;-81
2023/01/17 01:56:26;;;;;;;;;;;3.70;99.90;4.30;96960.00;;;;345550;28;89127;-81
2023/01/17 01:56:37;;;;;;;;;;;3.70;99.90;4.40;96966.00;;;;340530;28;83327;-81
2023/01/17 01:56:49;;;;;;;;;;;3.70;99.90;4.40;96956.00;;;;341439;28;90675;-81
2023/01/17 01:57:02;;;;;;;;;;;3.70;99.90;4.40;96963.00;;;;344706;28;83846;-81
2023/01/17 01:57:15;;;;;;;;;;;3.70;99.90;4.40;96958.00;;;;342685;28;90975;-81
2023/01/17 01:57:30;;;;;;;;;;;3.70;99.90;4.40;96959.00;;;;343127;28;83336;-81
2023/01/17 01:57:44;;;;;;;;;;;3.70;99.90;4.40;96955.00;;;;344126;28;91365;-81
2023/01/17 01:57:58;;;;;;;;;;;3.70;99.90;4.50;96962.00;;;;343136;28;83325;-81
2023/01/17 01:58:14;;;;;;;;;;;3.80;99.90;4.50;96960.00;;;;338758;28;90194;-81
2023/01/17 01:58:26;;;;;;;;;;;3.70;99.90;4.40;96962.00;;;;341824;28;83474;-81
2023/01/17 01:58:38;;;;;;;;;;;3.70;99.90;4.40;96969.00;;;;342889;28;89162;-81
2023/01/17 01:58:50;;;;;;;;;;;3.70;99.90;4.30;96962.00;;;;341939;28;83590;-81
2023/01/17 01:59:02;;;;;;;;;;;3.80;99.90;4.30;96966.00;;;;343016;28;88642;-81
2023/01/17 01:59:15;;;;;;;;;;;3.70;99.90;4.50;96966.00;;;;341910;28;83416;-81
2023/01/17 01:59:29;;;;;;;;;;;3.80;99.90;4.50;96959.00;;;;341596;28;89056;-81
2023/01/17 01:59:45;;;;;;;;;;;3.70;99.90;4.60;96962.00;;;;344441;28;82489;-81
2023/01/17 01:59:58;;;;;;;;;;;3.80;99.90;4.70;96955.00;;;;344250;28;89306;-81
2023/01/17 02:00:16;;;;;;;;;;;3.80;99.90;4.70;96961.00;;;;344907;28;83513;-81
2023/01/17 02:00:29;;;;;;;;;;;3.80;99.90;4.60;96956.00;;;;341715;28;88653;-81
2023/01/17 02:00:41;;;;;;;;;;;3.80;99.90;4.50;96957.00;;;;340914;28;82627;-81
2023/01/17 02:00:53;;;;;;;;;;;3.90;99.90;4.50;96949.00;;;;343177;28;89868;-83
2023/01/17 02:01:05;;;;;;;;;;;3.90;99.90;4.40;96960.00;;;;342361;28;83513;-82
2023/01/17 02:01:17;;;;;;;;;;;3.90;99.90;4.40;96953.00;;;;344628;28;89250;-82
2023/01/17 02:01:29;;;;;;;;;;;3.80;99.90;4.40;96949.00;;;;343913;28;83499;-81
2023/01/17 02:01:41;;;;;;;;;;;3.90;99.90;4.40;96946.00;;;;343921;28;92350;-82
2023/01/17 02:01:54;;;;;;;;;;;3.90;99.90;4.40;96948.00;;;;343197;28;82512;-81
2023/01/17 02:02:05;;;;;;;;;;;3.80;99.90;4.30;96953.00;;;;341456;28;88815;-81
2023/01/17 02:02:17;;;;;;;;;;;3.80;99.90;4.30;96950.00;;;;344811;28;82391;-80
2023/01/17 02:02:29;;;;;;;;;;;3.80;99.90;4.30;96955.00;;;;345730;28;88968;-81
2023/01/17 02:02:41;;;;;;;;;;;3.80;99.90;4.30;96950.00;;;;343415;28;83484;-82
2023/01/17 02:02:53;;;;;;;;;;;3.80;99.90;4.30;96952.00;;;;342779;28;88050;-81
2023/01/17 02:03:08;;;;;;;;;;;3.80;99.90;4.50;96953.00;;;;344665;28;82265;-81
2023/01/17 02:03:24;;;;;;;;;;;3.80;99.90;4.50;96948.00;;;;343044;28;88027;-81
2023/01/17 02:03:36;;;;;;;;;;;3.80;99.90;4.40;96940.00;;;;343305;28;82349;-81
2023/01/17 02:03:48;;;;;;;;;;;3.80;99.90;4.30;96944.00;;;;345724;28;88671;-80
2023/01/17 02:04:00;;;;;;;;;;;3.80;99.90;4.30;96951.00;;;;344637;28;82486;-81
2023/01/17 02:04:11;;;;;;;;;;;3.80;99.90;4.30;96946.00;;;;343061;28;87806;-81
2023/01/17 02:04:24;;;;;;;;;;;3.80;99.90;4.30;96948.00;;;;344681;28;82511;-81
2023/01/17 02:04:36;;;;;;;;;;;3.80;99.90;4.30;96941.00;;;;345512;28;92082;-80
2023/01/17 02:04:48;;;;;;;;;;;3.80;99.90;4.30;96932.00;;;;346222;28;83489;-81
2023/01/17 02:04:59;;;;;;;;;;;3.80;99.90;4.40;96940.00;;;;345649;28;89702;-81
2023/01/17 02:05:16;;;;;;;;;;;3.80;99.90;4.40;96947.00;;;;344766;28;83495;-80
2023/01/17 02:05:27;;;;;;;;;;;3.80;99.90;4.40;96934.00;;;;344156;28;89206;-81
2023/01/17 02:05:41;;;;;;;;;;;3.80;99.90;4.40;96945.00;;;;347612;28;82231;-81
2023/01/17 02:05:53;;;;;;;;;;;3.80;99.90;4.40;96939.00;;;;344205;28;87015;-81
2023/01/17 02:06:24;;;;;;;;;;;3.80;99.90;4.40;96941.00;;;;343415;28;83434;-81
2023/01/17 02:06:40;;;;;;;;;;;3.80;99.90;4.40;96943.00;;;;342708;28;88858;-81
2023/01/17 02:06:55;;;;;;;;;;;3.80;99.90;4.50;96941.00;;;;344658;28;82422;-81
2023/01/17 02:07:11;;;;;;;;;;;3.80;99.90;4.50;96945.00;;;;340116;28;94075;-82
2023/01/17 02:07:35;;;;;;;;;;;3.80;99.90;4.40;96940.00;;;;344922;28;82407;-81
2023/01/17 02:08:01;;;;;;;;;;;3.80;99.90;4.50;96954.00;;;;344410;28;88484;-81
2023/01/17 02:08:14;;;;;;;;;;;3.80;99.90;4.40;96941.00;;;;343595;28;82294;-80
2023/01/17 02:08:26;;;;;;;;;;;3.80;99.90;4.50;96947.00;;;;344414;28;88811;-81
2023/01/17 02:08:37;;;;;;;;;;;3.80;99.90;4.50;96940.00;;;;344832;28;82594;-80
2023/01/17 02:08:49;;;;;;;;;;;3.80;99.90;4.50;96936.00;;;;340524;28;87743;-80
2023/01/17 02:09:03;;;;;;;;;;;3.80;99.90;4.50;96932.00;;;;342120;28;82367;-81
2023/01/17 02:09:16;;;;;;;;;;;3.80;99.90;4.40;96935.00;;;;345662;28;91879;-81
2023/01/17 02:09:27;;;;;;;;;;;3.80;99.90;4.30;96937.00;;;;344736;28;82407;-81
2023/01/17 02:09:39;;;;;;;;;;;3.80;99.90;4.30;96938.00;;;;345538;28;89160;-82
2023/01/17 02:09:51;;;;;;;;;;;3.80;99.90;4.30;96930.00;;;;344842;28;82403;-81
2023/01/17 02:10:03;;;;;;;;;;;3.80;99.90;4.30;96936.00;;;;343080;28;88513;-80
2023/01/17 02:10:15;;;;;;;;;;;3.80;99.90;4.30;96946.00;;;;344777;28;82399;-80
2023/01/17 02:10:27;;;;;;;;;;;3.80;99.90;4.30;96941.00;;;;344460;28;88317;-81
2023/01/17 02:10:39;;;;;;;;;;;3.80;99.90;4.30;96941.00;;;;343397;28;83500;-81
2023/01/17 02:10:51;;;;;;;;;;;3.80;99.90;4.30;96934.00;;;;345811;28;87831;-81
2023/01/17 02:11:03;;;;;;;;;;;3.80;99.90;4.30;96936.00;;;;344935;28;82392;-81
2023/01/17 02:11:15;;;;;;;;;;;3.80;99.90;4.30;96932.00;;;;344290;28;89441;-81
2023/01/17 02:11:26;;;;;;;;;;;3.80;99.90;4.30;96936.00;;;;343229;28;82402;-81
2023/01/17 02:11:38;;;;;;;;;;;3.80;99.90;4.30;96938.00;;;;345039;28;92138;-81
2023/01/17 02:11:50;;;;;;;;;;;3.80;99.90;4.30;96934.00;;;;345918;28;82235;-81
2023/01/17 02:12:02;;;;;;;;;;;3.80;99.90;4.30;96932.00;;;;342884;28;88331;-81
2023/01/17 02:12:14;;;;;;;;;;;3.80;99.90;4.30;96929.00;;;;343097;28;83368;-81
2023/01/17 02:12:26;;;;;;;;;;;3.80;99.90;4.30;96941.00;;;;345625;28;87481;-82
2023/01/17 02:12:37;;;;;;;;;;;3.80;99.90;4.30;96939.00;;;;345960;28;82465;-81
2023/01/17 02:12:50;;;;;;;;;;;3.70;99.90;4.30;96927.00;;;;344157;28;89571;-82
2023/01/17 02:13:02;;;;;;;;;;;3.80;99.90;4.30;96928.00;;;;341856;28;83239;-82
2023/01/17 02:13:15;;;;;;;;;;;3.70;99.90;4.30;96928.00;;;;343811;28;90389;-81
2023/01/17 02:13:28;;;;;;;;;;;3.70;99.90;4.30;96937.00;;;;344189;28;82270;-81
2023/01/17 02:13:39;;;;;;;;;;;3.70;99.90;4.30;96933.00;;;;343957;28;92398;-81
2023/01/17 02:13:51;;;;;;;;;;;3.70;99.90;4.30;96934.00;;;;344405;28;82456;-81
2023/01/17 02:14:03;;;;;;;;;;;3.70;99.90;4.20;96930.00;;;;346885;28;88355;-81
2023/01/17 02:14:16;;;;;;;;;;;3.70;99.90;4.30;96930.00;;;;344550;28;82376;-80
2023/01/17 02:14:27;;;;;;;;;;;3.70;99.90;4.30;96928.00;;;;345489;28;87909;-80
2023/01/17 02:14:39;;;;;;;;;;;3.70;99.90;4.40;96926.00;;;;345725;28;82545;-81
2023/01/17 02:14:51;;;;;;;;;;;3.70;99.90;4.40;96922.00;;;;344136;28;88052;-81
2023/01/17 02:15:05;;;;;;;;;;;3.70;99.90;4.50;96918.00;;;;343121;28;82663;-80
2023/01/17 02:15:16;;;;;;;;;;;3.70;99.90;4.40;96923.00;;;;343864;28;90775;-82
2023/01/17 02:15:40;;;;;;;;;;;3.70;99.90;4.40;96929.00;;;;343022;28;82378;-82
2023/01/17 02:16:07;;;;;;;;;;;3.70;99.90;4.30;96934.00;;;;343453;28;91763;-81
2023/01/17 02:16:43;;;;;;;;;;;3.70;99.90;4.50;96937.00;;;;343598;28;83338;-81
2023/01/17 02:17:25;;;;;;;;;;;3.70;99.90;4.40;96930.00;;;;341431;28;88841;-81
2023/01/17 02:17:46;;;;;;;;;;;3.80;99.90;4.40;96928.00;;;;344557;28;83368;-81
2023/01/17 02:18:32;;;;;;;;;;;3.80;99.90;4.40;96924.00;;;;344001;28;89890;-81
2023/01/17 02:19:03;;;;;;;;;;;3.80;99.90;4.70;96935.00;;;;344512;28;83534;-81
2023/01/17 02:19:24;;;;;;;;;;;3.80;99.90;4.50;96937.00;;;;342775;28;89092;-82
2023/01/17 02:20:09;;;;;;;;;;;3.90;99.90;4.40;96925.00;;;;343117;28;83360;-81
2023/01/17 02:20:32;;;;;;;;;;;3.80;99.90;4.40;96935.00;;;;341375;28;90582;-82
2023/01/17 02:21:07;;;;;;;;;;;3.80;99.90;4.40;96929.00;;;;342849;28;82593;-81
2023/01/17 02:21:22;;;;;;;;;;;3.80;99.90;4.40;96928.00;;;;343939;28;90107;-81
2023/01/17 02:21:36;;;;;;;;;;;3.80;99.90;4.40;96930.00;;;;341900;28;83396;-81
2023/01/17 02:22:16;;;;;;;;;;;3.80;99.90;4.40;96922.00;;;;341357;28;89497;-81
2023/01/17 02:22:55;;;;;;;;;;;3.80;99.90;4.60;96906.00;;;;341782;28;83328;-81
2023/01/17 02:23:13;;;;;;;;;;;3.80;99.90;4.70;96924.00;;;;341430;28;89364;-81
2023/01/17 02:23:33;;;;;;;;;;;3.90;99.90;4.60;96917.00;;;;343150;28;83468;-81
2023/01/17 02:24:13;;;;;;;;;;;3.90;99.90;4.50;96916.00;;;;345888;28;89150;-81
2023/01/17 02:24:37;;;;;;;;;;;3.90;99.90;4.40;96916.00;;;;347364;28;83273;-81
2023/01/17 02:25:10;;;;;;;;;;;3.90;99.90;4.40;96915.00;;;;345458;28;92035;-81
2023/01/17 02:25:47;;;;;;;;;;;3.90;99.90;4.40;96916.00;;;;344004;28;83335;-81
2023/01/17 02:26:04;;;;;;;;;;;3.90;99.90;4.50;96907.00;;;;341286;28;90411;-81
2023/01/17 02:26:30;;;;;;;;;;;3.90;99.90;4.50;96914.00;;;;341843;28;82446;-81
2023/01/17 02:27:03;;;;;;;;;;;3.90;99.90;4.50;96911.00;;;;340106;28;89210;-81
2023/01/17 02:27:26;;;;;;;;;;;3.90;99.90;4.50;96912.00;;;;341788;28;83382;-82
2023/01/17 02:27:51;;;;;;;;;;;3.90;99.90;4.50;96913.00;;;;341362;28;90724;-81
2023/01/17 02:28:06;;;;;;;;;;;3.90;99.90;4.50;96910.00;;;;344501;28;83390;-81
2023/01/17 02:28:32;;;;;;;;;;;3.90;99.90;4.50;96920.00;;;;344185;28;89079;-81
2023/01/17 02:29:11;;;;;;;;;;;3.90;99.90;4.60;96918.00;;;;344561;28;82322;-81
2023/01/17 02:29:48;;;;;;;;;;;3.90;99.90;4.60;96917.00;;;;344151;28;88128;-81
2023/01/17 02:30:34;;;;;;;;;;;3.90;99.90;4.70;96919.00;;;;344411;28;83349;-81
2023/01/17 02:30:47;;;;;;;;;;;3.90;99.90;4.70;96907.00;;;;343991;28;90499;-81
2023/01/17 02:31:11;;;;;;;;;;;3.90;99.90;4.50;96916.00;;;;343149;28;83421;-81
2023/01/17 02:31:26;;;;;;;;;;;3.90;99.90;4.50;96917.00;;;;344143;28;88665;-81
2023/01/17 02:31:50;;;;;;;;;;;3.90;99.90;4.50;96917.00;;;;341966;28;82418;-81
2023/01/17 02:32:13;;;;;;;;;;;3.90;99.90;4.50;96915.00;;;;344133;28;89383;-81
2023/01/17 02:32:37;;;;;;;;;;;3.90;99.90;4.50;96916.00;;;;344469;28;82521;-81
2023/01/17 02:33:02;;;;;;;;;;;3.90;99.90;4.50;96918.00;;;;338809;28;89247;-81
2023/01/17 02:33:32;;;;;;;;;;;3.90;99.90;4.50;96909.00;;;;341800;28;82446;-81
2023/01/17 02:34:05;;;;;;;;;;;3.90;99.90;4.40;96910.00;;;;341390;28;89175;-81
2023/01/17 02:34:46;;;;;;;;;;;3.90;99.90;4.40;96905.00;;;;341815;28;83347;-81
2023/01/17 02:35:13;;;;;;;;;;;3.90;99.90;4.40;96900.00;;;;342660;28;89661;-81
2023/01/17 02:35:46;;;;;;;;;;;3.90;99.90;4.40;96906.00;;;;341803;28;83233;-81
2023/01/17 02:36:09;;;;;;;;;;;3.90;99.90;4.40;96901.00;;;;341291;28;89676;-81
2023/01/17 02:36:35;;;;;;;;;;;3.90;99.90;4.40;96886.00;;;;343200;28;82538;-81
2023/01/17 02:37:14;;;;;;;;;;;3.90;99.90;4.40;96895.00;;;;341422;28;89074;-81
2023/01/17 02:37:47;;;;;;;;;;;3.90;99.90;4.40;96890.00;;;;342920;28;83473;-81
2023/01/17 02:38:10;;;;;;;;;;;3.80;99.90;4.40;96887.00;;;;340408;28;88332;-81
2023/01/17 02:38:45;;;;;;;;;;;3.80;99.90;4.30;96890.00;;;;342951;28;83342;-81
2023/01/17 02:39:08;;;;;;;;;;;3.80;99.90;4.40;96887.00;;;;344151;28;89093;-81
2023/01/17 02:39:26;;;;;;;;;;;3.80;99.90;4.40;96880.00;;;;341788;28;83411;-81
2023/01/17 02:39:50;;;;;;;;;;;3.80;99.90;4.40;96889.00;;;;341104;28;90231;-81
2023/01/17 02:40:13;;;;;;;;;;;3.80;99.90;4.40;96883.00;;;;344528;28;83463;-81
2023/01/17 02:40:40;;;;;;;;;;;3.80;99.90;4.40;96881.00;;;;342650;28;92922;-81
2023/01/17 02:41:13;;;;;;;;;;;3.90;99.90;4.40;96872.00;;;;343208;28;83297;-81